Portada
METAR-TAF:

METAR-TAF

Aeroports :

Aeroport Internacional del Caire

El Caire, Egipte

latitud: 30-08N, longitud: 031-24E, altitud: 64 m

Observació

L'informe es va fer fa 35 minuts, a les 16:00 UTC
Vent 16 kt del Nord
Temperatura 28°C
Humitat 45%
Pressió 1014 hPa
Visibilitat 10 km o més
Núvols disperses a una alçada de 2500 ft

METAR: HECA 271600Z 35016KT 9999 SCT025 28/15 Q1014 NOSIG

Hora: 18:35 (16:35 UTC)

Pronòstic

L'informe es va fer fa 5 hores i 35 minuts, a les 11:00 UTC
Pronòstic vàlid del 27 a les 12 UTC al 28 a les 18 UTC
Vent 9 kt del Nord
Visibilitat 10 km o més
Núvols disperses a una alçada de 2500 ft
Temporalment
l' 27 a les 14 UTC al 27 a les 21 UTC
Vent 12 kt del Nord amb ràfegues de 22 kt

TAF: HECA 271100Z 2712/2818 36009KT 9999 SCT025 TEMPO 2714/2721 35012G22KT

Observacions i pronòstics meteorològics de més de 4000 aeroports (METAR i TAF).

Les estacions disponibles són els punts grocs i vermells al mapa.

Posi el ratolí al punt desitjat per veure el nom de l'estació.

Feu clic per veure les observacions i els pronòstics meteorològics.

Per canviar el mapa: feu clic els botons verds amb una creu de color negre per apropar; al botó verd amb un guió per allunyar la imatge; o en les fletxes verdes per a mapes adjacents.


METAR-TAF: